Sunflower Hakata — JL6711 — position and weather

sailwx.info

Track history (hours):
 
Tides and Currents Weather Stations Pressure Air Temp Water Temp Dewpoint Dewpoint Depression Visibility Wind Speed Wind Dir Waves Ship Positions

Sunflower Hakata

Last reported at 2016-Jul-01 23:33 UTC. Time now 2016-Jul-02 00:23 UTC.
Position N 35°37' E 139°48'.

Length 167 m; draft 6.5 m.

Type: Cargo ship. MMSI: 431501764.

Date/timePositionNaut miles runAvg speedWind from/ knotsBaromVisibWave heightAir tempDewpointWater temp
2016-Jul-01 23:33N 35°37' E 139°48'0 0.0
2016-Jul-01 22:33N 35°37' E 139°48'0 0.0
2016-Jul-01 21:33N 35°37' E 139°48'0 0.0
2016-Jul-01 20:34N 35°37' E 139°48'7 7.4
2016-Jul-01 19:33N 35°31' E 139°52'1414.3
2016-Jul-01 18:33N 35°18' E 139°45'1515.3
2016-Jul-01 17:33N 35°03' E 139°42'2120.2
2016-Jul-01 16:31N 34°50' E 139°21'22217.1
2016-Jul-01 03:33N 34°01' E 134°59'2423.6
2016-Jul-01 02:33N 34°25' E 135°00'1211.7
2016-Jul-01 01:32N 34°34' E 134°51'  
2016-Jun-28 17:17N 34°26' E 138°27'5520.0
2016-Jun-28 14:33N 34°55' E 139°24'2121.0
2016-Jun-28 13:34N 35°08' E 139°44'1414.4
2016-Jun-28 12:33N 35°22' E 139°42'1615.6
2016-Jun-28 11:34N 35°37' E 139°48'1 0.8
2016-Jun-28 10:34N 35°37' E 139°48'0 0.0
2016-Jun-28 09:31N 35°37' E 139°48'0 0.0
2016-Jun-28 08:31N 35°37' E 139°48'0 0.0
2016-Jun-28 07:31N 35°37' E 139°48'0 0.0
2016-Jun-28 06:31N 35°37' E 139°48'0 0.0
2016-Jun-28 04:31N 35°37' E 139°48'0 0.0
2016-Jun-28 03:31N 35°37' E 139°48'0 0.0
2016-Jun-28 02:31N 35°37' E 139°48'0 0.0
2016-Jun-28 01:31N 35°37' E 139°48'0 0.0
2016-Jun-28 00:31N 35°37' E 139°48'0 0.0
2016-Jun-27 23:31N 35°37' E 139°48'0 0.1
2016-Jun-27 22:31N 35°37' E 139°48'0 0.0
2016-Jun-27 21:28N 35°37' E 139°48'0 0.0
2016-Jun-27 20:28N 35°37' E 139°48'0 0.0
2016-Jun-27 19:31N 35°37' E 139°48'0 0.0
2016-Jun-27 18:31N 35°37' E 139°48'0 0.0
2016-Jun-27 17:31N 35°37' E 139°48'0 0.0
2016-Jun-27 16:28N 35°37' E 139°48'0 0.0
2016-Jun-27 15:28N 35°37' E 139°48'0 0.0
2016-Jun-27 14:31N 35°37' E 139°48'0 0.0
2016-Jun-27 13:31N 35°37' E 139°48'0 0.0
2016-Jun-27 12:31N 35°37' E 139°48'0 0.0
2016-Jun-27 11:31N 35°37' E 139°48'0 0.0
2016-Jun-27 10:31N 35°37' E 139°48'0 0.0
2016-Jun-27 09:31N 35°37' E 139°48'0 0.0
2016-Jun-27 08:31N 35°37' E 139°48'0 0.0
2016-Jun-27 07:31N 35°37' E 139°48'0 0.0
2016-Jun-27 06:31N 35°37' E 139°48'0 0.0
2016-Jun-27 05:28N 35°37' E 139°48'0 0.0
2016-Jun-27 04:31N 35°37' E 139°48'0 0.0
2016-Jun-27 03:31N 35°37' E 139°48'0 0.0
2016-Jun-27 02:33N 35°37' E 139°48'0 0.0
2016-Jun-27 01:33N 35°37' E 139°48'0 0.0
2016-Jun-27 00:33N 35°37' E 139°48'0 0.0
2016-Jun-26 23:33N 35°37' E 139°48'0 0.0
2016-Jun-26 22:34N 35°37' E 139°48'0 0.0
2016-Jun-26 21:34N 35°37' E 139°48'0 0.0
2016-Jun-26 20:33N 35°37' E 139°48'9 8.9
2016-Jun-26 19:34N 35°28' E 139°51'1212.3
2016-Jun-26 18:33N 35°17' E 139°45'1615.6
2016-Jun-26 17:33N 35°02' E 139°41'1919.0
2016-Jun-26 16:33N 34°51' E 139°22'22418.6
2016-Jun-26 04:32N 33°57' E 134°59'2221.9
2016-Jun-26 03:33N 34°19' E 134°59'1818.2
2016-Jun-26 02:33N 34°37' E 134°59'  
2016-Jun-23 17:30N 34°26' E 138°25'5619.2
2016-Jun-23 14:33N 34°54' E 139°24'2121.1
2016-Jun-23 13:33N 35°08' E 139°44'1514.6
2016-Jun-23 12:33N 35°22' E 139°42'1615.8
2016-Jun-23 11:33N 35°37' E 139°49'1 1.0
2016-Jun-23 10:30N 35°37' E 139°48'0 0.0
2016-Jun-23 09:33N 35°37' E 139°48'0 0.0
2016-Jun-23 08:33N 35°37' E 139°48'0 0.0
2016-Jun-23 07:30N 35°37' E 139°48'0 0.0
2016-Jun-23 05:30N 35°37' E 139°48'0 0.0
2016-Jun-23 04:30N 35°37' E 139°48'0 0.0
2016-Jun-23 03:30N 35°37' E 139°48'0 0.0
2016-Jun-23 02:30N 35°37' E 139°48'0 0.0
2016-Jun-23 01:33N 35°37' E 139°48'0 0.0
2016-Jun-23 00:30N 35°37' E 139°48'0 0.0
2016-Jun-22 23:21N 35°37' E 139°48'0 0.0
2016-Jun-22 22:33N 35°37' E 139°48'0 0.0
2016-Jun-22 21:34N 35°37' E 139°48'0 0.0
2016-Jun-22 20:33N 35°37' E 139°48'7 7.2
2016-Jun-22 19:33N 35°31' E 139°52'1514.6
2016-Jun-22 18:33N 35°18' E 139°45'1615.8
2016-Jun-22 17:33N 35°02' E 139°42'2119.3
2016-Jun-22 16:28N 34°50' E 139°21'22318.3
2016-Jun-22 04:14N 33°54' E 134°59'1522.3
2016-Jun-22 03:33N 34°09' E 134°59'2222.2
2016-Jun-22 02:34N 34°31' E 135°02'  
Track history (hours):
 
Tides and Currents Weather Stations Pressure Air Temp Water Temp Dewpoint Dewpoint Depression Visibility Wind Speed Wind Dir Waves Ship Positions

Sunflower Hakata

Last reported at 2016-Jul-01 23:33 UTC. Time now 2016-Jul-02 00:23 UTC.
Position N 35°37' E 139°48'.

Length 167 m; draft 6.5 m.

Type: Cargo ship. MMSI: 431501764.

Date/timePositionNaut miles runAvg speedWind from/ knotsBaromVisibWave heightAir tempDewpointWater temp
2016-Jul-01 23:33N 35°37' E 139°48'0 0.0
2016-Jul-01 22:33N 35°37' E 139°48'0 0.0
2016-Jul-01 21:33N 35°37' E 139°48'0 0.0
2016-Jul-01 20:34N 35°37' E 139°48'7 7.4
2016-Jul-01 19:33N 35°31' E 139°52'1414.3
2016-Jul-01 18:33N 35°18' E 139°45'1515.3
2016-Jul-01 17:33N 35°03' E 139°42'2120.2
2016-Jul-01 16:31N 34°50' E 139°21'22217.1
2016-Jul-01 03:33N 34°01' E 134°59'2423.6
2016-Jul-01 02:33N 34°25' E 135°00'1211.7
2016-Jul-01 01:32N 34°34' E 134°51'  
2016-Jun-28 17:17N 34°26' E 138°27'5520.0
2016-Jun-28 14:33N 34°55' E 139°24'2121.0
2016-Jun-28 13:34N 35°08' E 139°44'1414.4
2016-Jun-28 12:33N 35°22' E 139°42'1615.6
2016-Jun-28 11:34N 35°37' E 139°48'1 0.8
2016-Jun-28 10:34N 35°37' E 139°48'0 0.0
2016-Jun-28 09:31N 35°37' E 139°48'0 0.0
2016-Jun-28 08:31N 35°37' E 139°48'0 0.0
2016-Jun-28 07:31N 35°37' E 139°48'0 0.0
2016-Jun-28 06:31N 35°37' E 139°48'0 0.0
2016-Jun-28 04:31N 35°37' E 139°48'0 0.0
2016-Jun-28 03:31N 35°37' E 139°48'0 0.0
2016-Jun-28 02:31N 35°37' E 139°48'0 0.0
2016-Jun-28 01:31N 35°37' E 139°48'0 0.0
2016-Jun-28 00:31N 35°37' E 139°48'0 0.0
2016-Jun-27 23:31N 35°37' E 139°48'0 0.1
2016-Jun-27 22:31N 35°37' E 139°48'0 0.0
2016-Jun-27 21:28N 35°37' E 139°48'0 0.0
2016-Jun-27 20:28N 35°37' E 139°48'0 0.0
2016-Jun-27 19:31N 35°37' E 139°48'0 0.0
2016-Jun-27 18:31N 35°37' E 139°48'0 0.0
2016-Jun-27 17:31N 35°37' E 139°48'0 0.0
2016-Jun-27 16:28N 35°37' E 139°48'0 0.0
2016-Jun-27 15:28N 35°37' E 139°48'0 0.0
2016-Jun-27 14:31N 35°37' E 139°48'0 0.0
2016-Jun-27 13:31N 35°37' E 139°48'0 0.0
2016-Jun-27 12:31N 35°37' E 139°48'0 0.0
2016-Jun-27 11:31N 35°37' E 139°48'0 0.0
2016-Jun-27 10:31N 35°37' E 139°48'0 0.0
2016-Jun-27 09:31N 35°37' E 139°48'0 0.0
2016-Jun-27 08:31N 35°37' E 139°48'0 0.0
2016-Jun-27 07:31N 35°37' E 139°48'0 0.0
2016-Jun-27 06:31N 35°37' E 139°48'0 0.0
2016-Jun-27 05:28N 35°37' E 139°48'0 0.0
2016-Jun-27 04:31N 35°37' E 139°48'0 0.0
2016-Jun-27 03:31N 35°37' E 139°48'0 0.0
2016-Jun-27 02:33N 35°37' E 139°48'0 0.0
2016-Jun-27 01:33N 35°37' E 139°48'0 0.0
2016-Jun-27 00:33N 35°37' E 139°48'0 0.0
2016-Jun-26 23:33N 35°37' E 139°48'0 0.0
2016-Jun-26 22:34N 35°37' E 139°48'0 0.0
2016-Jun-26 21:34N 35°37' E 139°48'0 0.0
2016-Jun-26 20:33N 35°37' E 139°48'9 8.9
2016-Jun-26 19:34N 35°28' E 139°51'1212.3
2016-Jun-26 18:33N 35°17' E 139°45'1615.6
2016-Jun-26 17:33N 35°02' E 139°41'1919.0
2016-Jun-26 16:33N 34°51' E 139°22'22418.6
2016-Jun-26 04:32N 33°57' E 134°59'2221.9
2016-Jun-26 03:33N 34°19' E 134°59'1818.2
2016-Jun-26 02:33N 34°37' E 134°59'  
2016-Jun-23 17:30N 34°26' E 138°25'5619.2
2016-Jun-23 14:33N 34°54' E 139°24'2121.1
2016-Jun-23 13:33N 35°08' E 139°44'1514.6
2016-Jun-23 12:33N 35°22' E 139°42'1615.8
2016-Jun-23 11:33N 35°37' E 139°49'1 1.0
2016-Jun-23 10:30N 35°37' E 139°48'0 0.0
2016-Jun-23 09:33N 35°37' E 139°48'0 0.0
2016-Jun-23 08:33N 35°37' E 139°48'0 0.0
2016-Jun-23 07:30N 35°37' E 139°48'0 0.0
2016-Jun-23 05:30N 35°37' E 139°48'0 0.0
2016-Jun-23 04:30N 35°37' E 139°48'0 0.0
2016-Jun-23 03:30N 35°37' E 139°48'0 0.0
2016-Jun-23 02:30N 35°37' E 139°48'0 0.0
2016-Jun-23 01:33N 35°37' E 139°48'0 0.0
2016-Jun-23 00:30N 35°37' E 139°48'0 0.0
2016-Jun-22 23:21N 35°37' E 139°48'0 0.0
2016-Jun-22 22:33N 35°37' E 139°48'0 0.0
2016-Jun-22 21:34N 35°37' E 139°48'0 0.0
2016-Jun-22 20:33N 35°37' E 139°48'7 7.2
2016-Jun-22 19:33N 35°31' E 139°52'1514.6
2016-Jun-22 18:33N 35°18' E 139°45'1615.8
2016-Jun-22 17:33N 35°02' E 139°42'2119.3
2016-Jun-22 16:28N 34°50' E 139°21'22318.3
2016-Jun-22 04:14N 33°54' E 134°59'1522.3
2016-Jun-22 03:33N 34°09' E 134°59'2222.2
2016-Jun-22 02:34N 34°31' E 135°02'  

Dump ship's entire track history